createdAt,value
2022-12-06T00:00:34.610Z,-0.31
2022-12-06T00:01:34.656Z,-0.31
2022-12-06T00:02:34.763Z,-0.31
2022-12-06T00:03:34.642Z,-0.29
2022-12-06T00:04:34.549Z,-0.29
2022-12-06T00:05:34.551Z,-0.29
2022-12-06T00:06:34.624Z,-0.30
2022-12-06T00:07:34.651Z,-0.29
2022-12-06T00:08:34.508Z,-0.30
2022-12-06T00:09:35.541Z,-0.29
2022-12-06T00:10:34.566Z,-0.31
2022-12-06T00:11:34.478Z,-0.37
2022-12-06T00:12:34.463Z,-0.44
2022-12-06T00:13:34.474Z,-0.41
2022-12-06T00:14:34.605Z,-0.42
2022-12-06T00:15:34.434Z,-0.45
2022-12-06T00:16:34.848Z,-0.45
2022-12-06T00:17:37.637Z,-0.48
2022-12-06T00:18:34.427Z,-0.50
2022-12-06T00:19:34.392Z,-0.45
2022-12-06T00:20:34.425Z,-0.37
2022-12-06T00:21:34.712Z,-0.31
2022-12-06T00:22:34.374Z,-0.36
2022-12-06T00:23:34.369Z,-0.42
2022-12-06T00:24:34.395Z,-0.47
2022-12-06T00:25:34.381Z,-0.52
2022-12-06T00:26:34.339Z,-0.51
2022-12-06T00:27:34.381Z,-0.50
2022-12-06T00:28:34.309Z,-0.47
2022-12-06T00:29:34.272Z,-0.48
2022-12-06T00:30:34.274Z,-0.52
2022-12-06T00:31:34.307Z,-0.52
2022-12-06T00:32:34.256Z,-0.54
2022-12-06T00:33:34.266Z,-0.57
2022-12-06T00:34:34.234Z,-0.55
2022-12-06T00:35:34.221Z,-0.47
2022-12-06T00:36:34.223Z,-0.41
2022-12-06T00:37:34.199Z,-0.41
2022-12-06T00:38:34.225Z,-0.37
2022-12-06T00:39:34.180Z,-0.29
2022-12-06T00:40:34.186Z,-0.29
2022-12-06T00:41:34.145Z,-0.26
2022-12-06T00:42:34.147Z,-0.24
2022-12-06T00:43:34.148Z,-0.23
2022-12-06T00:44:34.288Z,-0.18
2022-12-06T00:45:34.156Z,-0.16
2022-12-06T00:46:34.253Z,-0.13
2022-12-06T00:47:34.103Z,-0.13
2022-12-06T00:48:34.353Z,-0.12
2022-12-06T00:49:34.055Z,-0.13
2022-12-06T00:50:34.064Z,-0.18
2022-12-06T00:51:34.091Z,-0.19
2022-12-06T00:52:34.059Z,-0.19
2022-12-06T00:53:34.028Z,-0.23
2022-12-06T00:54:34.167Z,-0.24
2022-12-06T00:55:34.008Z,-0.18
2022-12-06T00:56:34.012Z,-0.13
2022-12-06T00:57:34.137Z,-0.13
2022-12-06T00:58:34.306Z,-0.16
2022-12-06T00:59:33.976Z,-0.12
2022-12-06T01:00:33.953Z,-0.11
2022-12-06T01:01:34.063Z,-0.16
2022-12-06T01:02:33.977Z,-0.16
2022-12-06T01:03:35.330Z,-0.23
2022-12-06T01:04:33.896Z,-0.23
2022-12-06T01:05:33.961Z,-0.30
2022-12-06T01:06:33.962Z,-0.31
2022-12-06T01:07:34.041Z,-0.34
2022-12-06T01:08:33.973Z,-0.37
2022-12-06T01:09:33.974Z,-0.41
2022-12-06T01:10:33.842Z,-0.42
2022-12-06T01:11:33.817Z,-0.45
2022-12-06T01:12:33.817Z,-0.45
2022-12-06T01:13:34.587Z,-0.44
2022-12-06T01:14:33.837Z,-0.45
2022-12-06T01:15:33.931Z,-0.44
2022-12-06T01:16:34.737Z,-0.39
2022-12-06T01:17:33.811Z,-0.37
2022-12-06T01:18:33.746Z,-0.36
2022-12-06T01:19:33.759Z,-0.36
2022-12-06T01:20:33.715Z,-0.39
2022-12-06T01:21:33.724Z,-0.37
2022-12-06T01:22:33.709Z,-0.36
2022-12-06T01:23:33.703Z,-0.34
2022-12-06T01:24:33.679Z,-0.36
2022-12-06T01:25:36.197Z,-0.39
2022-12-06T01:26:33.685Z,-0.39
2022-12-06T01:27:33.671Z,-0.36
2022-12-06T01:28:33.635Z,-0.34
2022-12-06T01:29:33.623Z,-0.37
2022-12-06T01:30:33.689Z,-0.37
2022-12-06T01:31:38.192Z,-0.37
2022-12-06T01:32:33.634Z,-0.41
2022-12-06T01:33:33.575Z,-0.41
2022-12-06T01:34:33.572Z,-0.42
2022-12-06T01:35:33.552Z,-0.45
2022-12-06T01:36:33.575Z,-0.51
2022-12-06T01:37:33.586Z,-0.54
2022-12-06T01:38:33.534Z,-0.51
2022-12-06T01:39:33.525Z,-0.52
2022-12-06T01:40:33.502Z,-0.57
2022-12-06T01:41:33.515Z,-0.57
2022-12-06T01:42:33.514Z,-0.55
2022-12-06T01:43:33.553Z,-0.59
2022-12-06T01:44:33.506Z,-0.60
2022-12-06T01:45:33.469Z,-0.60
2022-12-06T01:46:33.578Z,-0.52
2022-12-06T01:47:33.454Z,-0.41
2022-12-06T01:48:33.420Z,-0.37
2022-12-06T01:49:33.423Z,-0.33
2022-12-06T01:50:33.391Z,-0.29
2022-12-06T01:51:33.391Z,-0.26
2022-12-06T01:52:33.402Z,-0.23
2022-12-06T01:53:33.395Z,-0.23
2022-12-06T01:54:33.352Z,-0.18
2022-12-06T01:55:33.373Z,-0.12
2022-12-06T01:56:33.368Z,-0.12
2022-12-06T01:57:33.327Z,-0.13
2022-12-06T01:58:33.334Z,-0.16
2022-12-06T01:59:33.304Z,-0.19
2022-12-06T02:00:33.324Z,-0.23
2022-12-06T02:01:33.384Z,-0.29
2022-12-06T02:02:33.356Z,-0.30
2022-12-06T02:03:33.286Z,-0.33
2022-12-06T02:04:33.297Z,-0.31
2022-12-06T02:05:39.047Z,-0.26
2022-12-06T02:06:33.241Z,-0.24
2022-12-06T02:07:33.309Z,-0.24
2022-12-06T02:08:33.252Z,-0.27
2022-12-06T02:09:33.186Z,-0.27
2022-12-06T02:10:33.181Z,-0.26
2022-12-06T02:11:35.443Z,-0.27
2022-12-06T02:12:33.167Z,-0.23
2022-12-06T02:13:33.160Z,-0.27
2022-12-06T02:14:33.135Z,-0.27
2022-12-06T02:15:33.122Z,-0.24
2022-12-06T02:16:36.426Z,-0.23
2022-12-06T02:17:33.119Z,-0.23
2022-12-06T02:18:33.097Z,-0.16
2022-12-06T02:19:33.095Z,-0.13
2022-12-06T02:20:33.065Z,-0.18
2022-12-06T02:21:33.062Z,-0.22
2022-12-06T02:22:33.038Z,-0.22
2022-12-06T02:23:33.046Z,-0.15
2022-12-06T02:24:33.048Z,-0.12
2022-12-06T02:27:20.367Z,-0.08
2022-12-06T02:28:21.333Z,-0.13
2022-12-06T02:29:21.379Z,-0.15
2022-12-06T02:30:21.315Z,-0.16
2022-12-06T02:31:21.355Z,-0.19
2022-12-06T02:32:21.343Z,-0.22
2022-12-06T02:33:21.307Z,-0.18
2022-12-06T02:34:21.305Z,-0.23
2022-12-06T02:35:21.286Z,-0.29
2022-12-06T02:36:21.282Z,-0.26
2022-12-06T02:37:21.287Z,-0.23
2022-12-06T02:38:21.312Z,-0.23
2022-12-06T02:39:21.238Z,-0.24
2022-12-06T02:40:21.224Z,-0.26
2022-12-06T02:41:21.245Z,-0.27
2022-12-06T02:42:21.198Z,-0.27
2022-12-06T02:43:21.193Z,-0.16
2022-12-06T02:44:21.236Z,-0.23
2022-12-06T02:45:21.185Z,-0.18
2022-12-06T02:46:21.262Z,-0.19
2022-12-06T02:47:21.894Z,-0.13
2022-12-06T02:48:21.129Z,-0.12
2022-12-06T02:49:21.130Z,-0.11
2022-12-06T02:50:21.098Z,-0.12
2022-12-06T02:51:21.141Z,-0.15
2022-12-06T02:52:21.086Z,-0.22
2022-12-06T02:53:21.077Z,-0.23
2022-12-06T02:54:21.062Z,-0.26
2022-12-06T02:55:21.049Z,-0.26
2022-12-06T02:56:21.074Z,-0.18
2022-12-06T02:57:21.036Z,-0.15
2022-12-06T02:58:21.061Z,-0.16
2022-12-06T02:59:21.037Z,-0.22
2022-12-06T03:00:20.993Z,-0.16
2022-12-06T03:01:21.002Z,-0.23
2022-12-06T03:02:21.049Z,-0.26
2022-12-06T03:03:20.955Z,-0.30
2022-12-06T03:04:20.968Z,-0.31
2022-12-06T03:05:20.961Z,-0.31
2022-12-06T03:06:20.962Z,-0.30
2022-12-06T03:07:20.922Z,-0.31
2022-12-06T03:08:20.957Z,-0.30
2022-12-06T03:09:20.908Z,-0.33
2022-12-06T03:10:20.881Z,-0.33
2022-12-06T03:11:20.888Z,-0.34
2022-12-06T03:12:20.905Z,-0.37
2022-12-06T03:13:20.851Z,-0.37
2022-12-06T03:14:20.846Z,-0.34
2022-12-06T03:15:20.839Z,-0.36
2022-12-06T03:16:20.869Z,-0.36
2022-12-06T03:17:20.799Z,-0.31
2022-12-06T03:18:20.817Z,-0.36
2022-12-06T03:19:20.798Z,-0.34
2022-12-06T03:20:20.779Z,-0.39
2022-12-06T03:21:20.765Z,-0.39
2022-12-06T03:22:20.761Z,-0.36
2022-12-06T03:23:20.762Z,-0.34
2022-12-06T03:24:20.758Z,-0.36
2022-12-06T03:25:20.729Z,-0.36
2022-12-06T03:26:20.716Z,-0.33
2022-12-06T03:27:20.695Z,-0.29
2022-12-06T03:28:20.707Z,-0.31
2022-12-06T03:29:20.663Z,-0.33
2022-12-06T03:30:20.689Z,-0.29
2022-12-06T03:31:20.673Z,-0.27
2022-12-06T03:32:20.680Z,-0.26
2022-12-06T03:33:20.633Z,-0.22
2022-12-06T03:34:20.661Z,-0.22
2022-12-06T03:35:20.652Z,-0.22
2022-12-06T03:36:20.607Z,-0.23
2022-12-06T03:37:20.599Z,-0.23
2022-12-06T03:38:20.578Z,-0.24
2022-12-06T03:39:20.606Z,-0.24
2022-12-06T03:40:20.566Z,-0.26
2022-12-06T03:41:20.551Z,-0.19
2022-12-06T03:42:20.554Z,-0.16
2022-12-06T03:43:20.520Z,-0.18
2022-12-06T03:44:20.527Z,-0.22
2022-12-06T03:45:20.543Z,-0.24
2022-12-06T03:46:20.630Z,-0.29
2022-12-06T03:47:20.483Z,-0.27
2022-12-06T03:48:20.469Z,-0.31
2022-12-06T03:49:20.469Z,-0.29
2022-12-06T03:50:20.470Z,-0.30
2022-12-06T03:51:20.441Z,-0.33
2022-12-06T03:52:20.420Z,-0.33
2022-12-06T03:53:20.431Z,-0.34
2022-12-06T03:54:21.246Z,-0.30
2022-12-06T03:55:20.420Z,-0.29
2022-12-06T03:56:20.376Z,-0.30
2022-12-06T03:57:20.375Z,-0.33
2022-12-06T03:58:20.370Z,-0.29
2022-12-06T03:59:20.345Z,-0.34
2022-12-06T04:00:20.329Z,-0.34
2022-12-06T04:01:20.409Z,-0.33
2022-12-06T04:02:20.317Z,-0.37
2022-12-06T04:03:20.371Z,-0.37
2022-12-06T04:04:20.400Z,-0.34
2022-12-06T04:05:20.286Z,-0.36
2022-12-06T04:06:20.275Z,-0.39
2022-12-06T04:07:20.255Z,-0.41
2022-12-06T04:08:20.389Z,-0.42
2022-12-06T04:09:20.219Z,-0.37
2022-12-06T04:10:20.253Z,-0.36
2022-12-06T04:11:20.225Z,-0.39
2022-12-06T04:12:20.212Z,-0.41
2022-12-06T04:13:20.217Z,-0.45
2022-12-06T04:14:20.184Z,-0.51
2022-12-06T04:15:20.179Z,-0.48
2022-12-06T04:16:20.210Z,-0.45
2022-12-06T04:17:20.151Z,-0.41
2022-12-06T04:18:20.147Z,-0.39
2022-12-06T04:19:20.185Z,-0.39
2022-12-06T04:20:20.755Z,-0.36
2022-12-06T04:21:20.106Z,-0.34
2022-12-06T04:22:20.095Z,-0.37
2022-12-06T04:23:20.118Z,-0.37
2022-12-06T04:24:20.093Z,-0.45
2022-12-06T04:25:20.081Z,-0.41
2022-12-06T04:26:20.070Z,-0.41
2022-12-06T04:27:20.043Z,-0.42
2022-12-06T04:28:20.026Z,-0.41
2022-12-06T04:29:20.036Z,-0.39
2022-12-06T04:30:20.030Z,-0.33
2022-12-06T04:31:22.351Z,-0.37
2022-12-06T04:32:19.978Z,-0.44
2022-12-06T04:33:19.976Z,-0.48
2022-12-06T04:34:19.962Z,-0.54
2022-12-06T04:35:19.973Z,-0.54
2022-12-06T04:36:19.945Z,-0.54
2022-12-06T04:37:19.918Z,-0.52
2022-12-06T04:38:19.931Z,-0.50
2022-12-06T04:39:20.926Z,-0.45
2022-12-06T04:40:19.909Z,-0.44
2022-12-06T04:41:19.891Z,-0.47
2022-12-06T04:42:19.875Z,-0.51
2022-12-06T04:43:19.865Z,-0.52
2022-12-06T04:44:19.855Z,-0.54
2022-12-06T04:45:19.845Z,-0.59
2022-12-06T04:46:19.993Z,-0.63
2022-12-06T04:47:19.826Z,-0.63
2022-12-06T04:48:19.821Z,-0.63
2022-12-06T04:49:19.813Z,-0.63
2022-12-06T04:50:19.799Z,-0.62
2022-12-06T04:51:19.775Z,-0.54
2022-12-06T04:52:19.761Z,-0.59
2022-12-06T04:53:19.776Z,-0.63
2022-12-06T04:54:19.740Z,-0.68
2022-12-06T04:55:19.755Z,-0.73
2022-12-06T04:56:19.729Z,-0.77
2022-12-06T04:57:19.700Z,-0.80
2022-12-06T04:58:19.696Z,-0.80
2022-12-06T04:59:19.685Z,-0.78
2022-12-06T05:00:19.739Z,-0.83
2022-12-06T05:01:19.730Z,-0.86
2022-12-06T05:02:19.680Z,-0.81
2022-12-06T05:03:19.699Z,-0.80
2022-12-06T05:04:19.671Z,-0.81
2022-12-06T05:05:19.653Z,-0.81
2022-12-06T05:06:19.624Z,-0.80
2022-12-06T05:07:19.604Z,-0.83
2022-12-06T05:08:19.665Z,-0.89
2022-12-06T05:09:19.603Z,-0.91
2022-12-06T05:10:19.565Z,-0.86
2022-12-06T05:11:19.568Z,-0.87
2022-12-06T05:12:19.547Z,-0.83
2022-12-06T05:13:19.540Z,-0.81
2022-12-06T05:14:19.526Z,-0.86
2022-12-06T05:15:19.512Z,-0.86
2022-12-06T05:16:19.620Z,-0.84
2022-12-06T05:17:19.484Z,-0.89
2022-12-06T05:18:19.490Z,-0.89
2022-12-06T05:19:19.464Z,-0.87
2022-12-06T05:20:19.456Z,-0.84
2022-12-06T05:21:19.452Z,-0.81
2022-12-06T05:22:19.459Z,-0.78
2022-12-06T05:23:19.424Z,-0.77
2022-12-06T05:24:19.410Z,-0.73
2022-12-06T05:25:19.405Z,-0.81
2022-12-06T05:26:19.388Z,-0.78
2022-12-06T05:27:19.418Z,-0.83
2022-12-06T05:28:19.404Z,-0.83
2022-12-06T05:29:19.372Z,-0.83
2022-12-06T05:30:19.356Z,-0.83
2022-12-06T05:31:19.419Z,-0.86
2022-12-06T05:32:19.340Z,-0.89
2022-12-06T05:33:19.306Z,-0.84
2022-12-06T05:34:19.311Z,-0.87
2022-12-06T05:35:19.311Z,-0.83
2022-12-06T05:36:19.279Z,-0.86
2022-12-06T05:37:19.264Z,-0.87
2022-12-06T05:38:19.265Z,-0.87
2022-12-06T05:39:19.273Z,-0.89
2022-12-06T05:40:19.261Z,-0.91
2022-12-06T05:41:19.225Z,-0.89
2022-12-06T05:42:22.432Z,-0.94
2022-12-06T05:43:19.205Z,-0.94
2022-12-06T05:44:19.222Z,-0.92
2022-12-06T05:45:19.193Z,-0.92
2022-12-06T05:46:19.286Z,-0.94
2022-12-06T05:47:19.195Z,-0.94
2022-12-06T05:48:19.151Z,-0.92
2022-12-06T05:49:19.140Z,-0.95
2022-12-06T05:50:19.106Z,-0.95
2022-12-06T05:51:19.115Z,-0.95
2022-12-06T05:52:19.151Z,-1.03
2022-12-06T05:53:19.102Z,-1.02
2022-12-06T05:54:19.094Z,-0.97
2022-12-06T05:55:19.081Z,-1.00
2022-12-06T05:56:19.073Z,-1.02
2022-12-06T05:57:19.037Z,-1.05
2022-12-06T05:58:19.041Z,-1.07
2022-12-06T05:59:19.013Z,-1.10
2022-12-06T06:00:19.028Z,-1.12
2022-12-06T06:01:19.005Z,-1.12
2022-12-06T06:02:19.085Z,-1.15
2022-12-06T06:03:19.130Z,-1.17
2022-12-06T06:04:18.967Z,-1.15
2022-12-06T06:05:18.954Z,-1.15
2022-12-06T06:06:18.948Z,-1.17
2022-12-06T06:07:18.963Z,-1.06
2022-12-06T06:08:18.982Z,-1.06
2022-12-06T06:09:18.921Z,-1.10
2022-12-06T06:10:18.935Z,-1.13
2022-12-06T06:11:18.891Z,-1.15
2022-12-06T06:12:18.869Z,-1.15
2022-12-06T06:13:18.926Z,-1.13
2022-12-06T06:14:18.866Z,-1.15
2022-12-06T06:15:18.856Z,-1.13
2022-12-06T06:16:18.890Z,-1.09
2022-12-06T06:17:18.834Z,-1.13
2022-12-06T06:18:19.582Z,-1.09
2022-12-06T06:19:18.829Z,-1.12
2022-12-06T06:20:18.796Z,-1.13
2022-12-06T06:21:18.790Z,-1.17
2022-12-06T06:22:18.772Z,-1.21
2022-12-06T06:23:18.754Z,-1.21
2022-12-06T06:24:18.785Z,-1.20
2022-12-06T06:25:18.734Z,-1.18
2022-12-06T06:26:18.736Z,-1.18
2022-12-06T06:27:18.707Z,-1.23
2022-12-06T06:28:18.716Z,-1.24
2022-12-06T06:29:18.725Z,-1.30
2022-12-06T06:30:18.705Z,-1.31
2022-12-06T06:31:18.758Z,-1.31
2022-12-06T06:32:18.678Z,-1.33
2022-12-06T06:33:18.766Z,-1.33
2022-12-06T06:34:18.670Z,-1.39
2022-12-06T06:35:18.702Z,-1.39
2022-12-06T06:36:18.638Z,-1.38
2022-12-06T06:37:18.630Z,-1.28
2022-12-06T06:38:18.586Z,-1.27
2022-12-06T06:39:18.585Z,-1.25
2022-12-06T06:40:18.576Z,-1.18
2022-12-06T06:41:18.578Z,-1.17
2022-12-06T06:42:18.587Z,-1.17
2022-12-06T06:43:18.876Z,-1.24
2022-12-06T06:44:18.527Z,-1.30
2022-12-06T06:45:19.873Z,-1.33
2022-12-06T06:46:18.610Z,-1.35
2022-12-06T06:47:18.489Z,-1.36
2022-12-06T06:48:18.493Z,-1.39
2022-12-06T06:49:18.475Z,-1.38
2022-12-06T06:50:18.482Z,-1.36
2022-12-06T06:51:18.467Z,-1.36
2022-12-06T06:52:18.450Z,-1.39
2022-12-06T06:53:18.415Z,-1.41
2022-12-06T06:54:18.427Z,-1.38
2022-12-06T06:55:18.402Z,-1.35
2022-12-06T06:56:18.466Z,-1.36
2022-12-06T06:57:18.380Z,-1.36
2022-12-06T06:58:18.394Z,-1.38
2022-12-06T06:59:18.369Z,-1.41
2022-12-06T07:00:18.356Z,-1.43
2022-12-06T07:01:18.457Z,-1.46
2022-12-06T07:02:18.897Z,-1.46
2022-12-06T07:03:18.311Z,-1.49
2022-12-06T07:04:18.301Z,-1.43
2022-12-06T07:05:18.290Z,-1.39
2022-12-06T07:06:18.289Z,-1.42
2022-12-06T07:07:21.186Z,-1.46
2022-12-06T07:08:18.368Z,-1.45
2022-12-06T07:09:18.256Z,-1.36
2022-12-06T07:10:18.257Z,-1.39
2022-12-06T07:11:18.248Z,-1.43
2022-12-06T07:12:18.207Z,-1.42
2022-12-06T07:13:18.241Z,-1.42
2022-12-06T07:14:18.215Z,-1.41
2022-12-06T07:15:18.209Z,-1.39
2022-12-06T07:16:18.257Z,-1.39
2022-12-06T07:17:18.243Z,-1.38
2022-12-06T07:18:18.153Z,-1.41
2022-12-06T07:19:18.144Z,-1.45
2022-12-06T07:20:18.156Z,-1.46
2022-12-06T07:21:18.135Z,-1.41
2022-12-06T07:22:18.128Z,-1.38
2022-12-06T07:23:18.104Z,-1.41
2022-12-06T07:24:18.090Z,-1.42
2022-12-06T07:25:18.125Z,-1.41
2022-12-06T07:26:18.062Z,-1.38
2022-12-06T07:27:18.093Z,-1.41
2022-12-06T07:28:18.048Z,-1.39
2022-12-06T07:29:18.034Z,-1.39
2022-12-06T07:30:20.524Z,-1.41
2022-12-06T07:31:18.107Z,-1.42
2022-12-06T07:32:17.999Z,-1.42
2022-12-06T07:33:18.005Z,-1.42
2022-12-06T07:34:17.991Z,-1.46
2022-12-06T07:35:17.975Z,-1.46
2022-12-06T07:36:17.964Z,-1.42
2022-12-06T07:37:17.938Z,-1.41
2022-12-06T07:38:17.965Z,-1.43
2022-12-06T07:39:17.930Z,-1.45
2022-12-06T07:40:19.193Z,-1.43
2022-12-06T07:41:17.906Z,-1.45
2022-12-06T07:42:17.883Z,-1.49
2022-12-06T07:43:17.877Z,-1.54
2022-12-06T07:44:17.863Z,-1.51
2022-12-06T07:45:17.875Z,-1.51
2022-12-06T07:46:18.066Z,-1.56
2022-12-06T07:47:17.823Z,-1.59
2022-12-06T07:48:17.848Z,-1.54
2022-12-06T07:49:17.808Z,-1.59
2022-12-06T07:50:18.578Z,-1.56
2022-12-06T07:51:17.802Z,-1.59
2022-12-06T07:52:17.813Z,-1.60
2022-12-06T07:53:17.764Z,-1.57
2022-12-06T07:54:17.784Z,-1.59
2022-12-06T07:55:17.746Z,-1.54
2022-12-06T07:56:17.750Z,-1.53
2022-12-06T07:57:17.761Z,-1.49
2022-12-06T07:58:17.732Z,-1.48
2022-12-06T07:59:17.704Z,-1.48
2022-12-06T08:00:17.710Z,-1.48
2022-12-06T08:01:17.760Z,-1.49
2022-12-06T08:02:17.686Z,-1.53
2022-12-06T08:03:17.647Z,-1.54
2022-12-06T08:04:17.729Z,-1.56
2022-12-06T08:05:17.635Z,-1.60
2022-12-06T08:06:17.642Z,-1.59
2022-12-06T08:07:17.630Z,-1.59
2022-12-06T08:08:17.670Z,-1.59
2022-12-06T08:09:17.586Z,-1.57
2022-12-06T08:10:17.586Z,-1.63
2022-12-06T08:11:17.644Z,-1.64
2022-12-06T08:12:17.557Z,-1.66
2022-12-06T08:13:17.549Z,-1.63
2022-12-06T08:14:17.530Z,-1.63
2022-12-06T08:15:17.530Z,-1.64
2022-12-06T08:16:17.704Z,-1.69
2022-12-06T08:17:17.545Z,-1.66
2022-12-06T08:18:17.560Z,-1.69
2022-12-06T08:19:17.468Z,-1.72
2022-12-06T08:20:17.475Z,-1.74
2022-12-06T08:21:17.474Z,-1.72
2022-12-06T08:22:17.428Z,-1.69
2022-12-06T08:23:17.453Z,-1.72
2022-12-06T08:24:17.438Z,-1.74
2022-12-06T08:25:17.436Z,-1.77
2022-12-06T08:26:17.397Z,-1.78
2022-12-06T08:27:17.394Z,-1.78
2022-12-06T08:28:17.392Z,-1.74
2022-12-06T08:29:17.394Z,-1.74
2022-12-06T08:30:17.364Z,-1.77
2022-12-06T08:31:17.430Z,-1.77
2022-12-06T08:32:17.334Z,-1.77
2022-12-06T08:33:17.331Z,-1.81
2022-12-06T08:34:17.338Z,-1.84
2022-12-06T08:35:17.295Z,-1.87
2022-12-06T08:36:17.310Z,-1.87
2022-12-06T08:37:18.038Z,-1.80
2022-12-06T08:38:17.328Z,-1.78
2022-12-06T08:39:17.251Z,-1.80
2022-12-06T08:40:17.255Z,-1.80
2022-12-06T08:41:17.248Z,-1.78
2022-12-06T08:42:22.057Z,-1.78
2022-12-06T08:43:17.237Z,-1.81
2022-12-06T08:44:17.220Z,-1.81
2022-12-06T08:45:17.182Z,-1.82
2022-12-06T08:46:17.215Z,-1.85
2022-12-06T08:47:17.328Z,-1.87
2022-12-06T08:48:17.165Z,-1.85
2022-12-06T08:49:17.159Z,-1.85
2022-12-06T08:50:17.135Z,-1.84
2022-12-06T08:51:17.161Z,-1.87
2022-12-06T08:52:17.138Z,-1.90
2022-12-06T08:53:17.107Z,-1.92
2022-12-06T08:54:17.125Z,-1.93
2022-12-06T08:55:17.084Z,-1.93
2022-12-06T08:56:17.071Z,-1.95
2022-12-06T08:57:17.061Z,-1.98
2022-12-06T08:58:17.050Z,-1.96
2022-12-06T08:59:17.044Z,-1.96
2022-12-06T09:00:17.172Z,-1.92
2022-12-06T09:01:17.151Z,-1.88
2022-12-06T09:02:17.112Z,-1.84
2022-12-06T09:03:16.996Z,-1.87
2022-12-06T09:04:17.036Z,-1.87
2022-12-06T09:05:16.965Z,-1.90
2022-12-06T09:06:17.549Z,-1.92
2022-12-06T09:07:17.004Z,-1.90
2022-12-06T09:08:17.025Z,-1.85
2022-12-06T09:09:16.931Z,-1.85
2022-12-06T09:10:16.907Z,-1.82
2022-12-06T09:11:17.007Z,-1.84
2022-12-06T09:12:16.911Z,-1.80
2022-12-06T09:13:16.900Z,-1.77
2022-12-06T09:14:21.628Z,-1.78
2022-12-06T09:15:16.882Z,-1.78
2022-12-06T09:16:16.899Z,-1.78
2022-12-06T09:17:16.962Z,-1.78
2022-12-06T09:18:16.840Z,-1.77
2022-12-06T09:19:16.820Z,-1.77
2022-12-06T09:20:16.821Z,-1.74
2022-12-06T09:21:16.801Z,-1.70
2022-12-06T09:22:16.840Z,-1.69
2022-12-06T09:23:16.808Z,-1.66
2022-12-06T09:24:16.808Z,-1.67
2022-12-06T09:25:16.806Z,-1.69
2022-12-06T09:26:16.729Z,-1.69
2022-12-06T09:27:16.730Z,-1.64
2022-12-06T09:28:16.725Z,-1.57
2022-12-06T09:29:16.774Z,-1.56
2022-12-06T09:30:16.691Z,-1.57
2022-12-06T09:31:16.795Z,-1.59
2022-12-06T09:32:16.682Z,-1.60
2022-12-06T09:33:16.677Z,-1.62
2022-12-06T09:34:16.742Z,-1.59
2022-12-06T09:35:20.837Z,-1.57
2022-12-06T09:36:16.646Z,-1.57
2022-12-06T09:37:16.628Z,-1.57
2022-12-06T09:38:16.632Z,-1.59
2022-12-06T09:39:16.600Z,-1.57
2022-12-06T09:40:16.604Z,-1.57
2022-12-06T09:41:16.591Z,-1.59
2022-12-06T09:42:16.563Z,-1.59
2022-12-06T09:43:16.574Z,-1.57
2022-12-06T09:44:16.538Z,-1.56
2022-12-06T09:45:16.546Z,-1.57
2022-12-06T09:46:16.559Z,-1.56
2022-12-06T09:47:16.528Z,-1.56
2022-12-06T09:48:16.528Z,-1.57
2022-12-06T09:49:16.487Z,-1.57
2022-12-06T09:50:16.485Z,-1.54
2022-12-06T09:51:16.471Z,-1.54
2022-12-06T09:52:16.459Z,-1.54
2022-12-06T09:53:16.473Z,-1.56
2022-12-06T09:54:16.464Z,-1.57
2022-12-06T09:55:16.440Z,-1.57
2022-12-06T09:56:16.404Z,-1.57
2022-12-06T09:57:16.447Z,-1.59
2022-12-06T09:58:16.385Z,-1.59
2022-12-06T09:59:16.361Z,-1.60
2022-12-06T10:00:22.123Z,-1.60
2022-12-06T10:01:16.361Z,-1.59
2022-12-06T10:02:16.448Z,-1.60
2022-12-06T10:03:16.363Z,-1.57
2022-12-06T10:04:16.321Z,-1.63
2022-12-06T10:05:16.340Z,-1.63
2022-12-06T10:06:16.307Z,-1.64
2022-12-06T10:07:16.446Z,-1.63
2022-12-06T10:08:16.447Z,-1.63
2022-12-06T10:09:16.329Z,-1.66
2022-12-06T10:10:16.631Z,-1.66
2022-12-06T10:11:16.295Z,-1.66
2022-12-06T10:12:16.288Z,-1.63
2022-12-06T10:13:16.233Z,-1.63
2022-12-06T10:14:16.251Z,-1.64
2022-12-06T10:15:16.222Z,-1.67
2022-12-06T10:16:16.252Z,-1.66
2022-12-06T10:17:16.198Z,-1.69
2022-12-06T10:18:16.239Z,-1.67
2022-12-06T10:19:16.188Z,-1.66
2022-12-06T10:20:16.198Z,-1.66
2022-12-06T10:21:16.126Z,-1.69
2022-12-06T10:22:16.152Z,-1.67
2022-12-06T10:23:16.257Z,-1.67
2022-12-06T10:24:16.125Z,-1.69
2022-12-06T10:25:16.102Z,-1.67
2022-12-06T10:26:16.101Z,-1.69
2022-12-06T10:27:16.078Z,-1.69
2022-12-06T10:28:16.110Z,-1.67
2022-12-06T10:29:16.046Z,-1.70
2022-12-06T10:30:16.043Z,-1.70
2022-12-06T10:31:16.143Z,-1.69
2022-12-06T10:32:16.011Z,-1.74
2022-12-06T10:33:16.038Z,-1.72
2022-12-06T10:34:16.029Z,-1.74
2022-12-06T10:35:16.142Z,-1.74
2022-12-06T10:36:15.985Z,-1.69
2022-12-06T10:37:15.966Z,-1.67
2022-12-06T10:38:15.969Z,-1.69
2022-12-06T10:39:15.934Z,-1.66
2022-12-06T10:40:15.918Z,-1.66
2022-12-06T10:41:15.897Z,-1.66
2022-12-06T10:42:15.940Z,-1.64
2022-12-06T10:43:15.900Z,-1.64
2022-12-06T10:44:15.885Z,-1.63
2022-12-06T10:45:18.262Z,-1.64
2022-12-06T10:46:15.890Z,-1.66
2022-12-06T10:47:15.895Z,-1.64
2022-12-06T10:48:15.863Z,-1.64
2022-12-06T10:49:15.815Z,-1.69
2022-12-06T10:50:15.830Z,-1.69
2022-12-06T10:51:15.808Z,-1.70
2022-12-06T10:52:15.828Z,-1.72
2022-12-06T10:53:15.813Z,-1.69
2022-12-06T10:54:15.806Z,-1.72
2022-12-06T10:55:15.772Z,-1.74
2022-12-06T10:56:15.752Z,-1.77
2022-12-06T10:57:15.739Z,-1.78
2022-12-06T10:58:15.718Z,-1.82
2022-12-06T10:59:15.728Z,-1.81
2022-12-06T11:00:16.729Z,-1.82
2022-12-06T11:01:16.548Z,-1.85
2022-12-06T11:02:15.763Z,-1.85
2022-12-06T11:03:15.691Z,-1.88
2022-12-06T11:04:15.676Z,-1.92
2022-12-06T11:05:15.687Z,-1.93
2022-12-06T11:06:15.633Z,-1.96
2022-12-06T11:07:15.661Z,-1.96
2022-12-06T11:08:15.695Z,-1.95
2022-12-06T11:09:15.600Z,-1.98
2022-12-06T11:10:15.619Z,-1.99
2022-12-06T11:11:15.583Z,-2.00
2022-12-06T11:12:15.606Z,-2.00
2022-12-06T11:13:15.559Z,-2.02
2022-12-06T11:14:15.559Z,-2.03
2022-12-06T11:15:15.632Z,-2.03
2022-12-06T11:16:15.594Z,-2.08
2022-12-06T11:17:15.516Z,-2.10
2022-12-06T11:18:15.493Z,-2.11
2022-12-06T11:19:15.500Z,-2.16
2022-12-06T11:20:15.500Z,-2.17
2022-12-06T11:21:15.522Z,-2.20
2022-12-06T11:22:15.495Z,-2.21
2022-12-06T11:23:15.452Z,-2.23
2022-12-06T11:24:15.492Z,-2.24
2022-12-06T11:25:15.427Z,-2.28
2022-12-06T11:26:15.410Z,-2.32
2022-12-06T11:27:15.422Z,-2.32
2022-12-06T11:28:15.390Z,-2.33
2022-12-06T11:29:15.372Z,-2.35
2022-12-06T11:30:19.983Z,-2.36
2022-12-06T11:31:15.422Z,-2.36
2022-12-06T11:32:15.368Z,-2.39
2022-12-06T11:33:15.370Z,-2.40
2022-12-06T11:34:15.346Z,-2.43
2022-12-06T11:35:15.345Z,-2.45
2022-12-06T11:36:15.325Z,-2.43
2022-12-06T11:37:15.298Z,-2.42
2022-12-06T11:38:15.337Z,-2.42
2022-12-06T11:39:15.319Z,-2.43
2022-12-06T11:40:15.272Z,-2.45
2022-12-06T11:41:15.243Z,-2.45
2022-12-06T11:42:15.237Z,-2.48
2022-12-06T11:43:15.222Z,-2.50
2022-12-06T11:44:15.230Z,-2.48
2022-12-06T11:45:15.239Z,-2.51
2022-12-06T11:46:15.218Z,-2.53
2022-12-06T11:47:16.067Z,-2.56
2022-12-06T11:48:15.180Z,-2.56
2022-12-06T11:49:16.310Z,-2.58
2022-12-06T11:50:17.082Z,-2.58
2022-12-06T11:51:15.167Z,-2.57
2022-12-06T11:52:15.137Z,-2.57
2022-12-06T11:53:15.135Z,-2.56
2022-12-06T11:54:15.125Z,-2.57
2022-12-06T11:55:15.133Z,-2.60
2022-12-06T11:56:15.125Z,-2.61
2022-12-06T11:57:20.808Z,-2.63
2022-12-06T11:58:15.070Z,-2.64
2022-12-06T11:59:15.057Z,-2.66
2022-12-06T12:00:15.071Z,-2.68
2022-12-06T12:01:15.052Z,-2.63
2022-12-06T12:02:19.451Z,-2.66
2022-12-06T12:03:15.080Z,-2.69
2022-12-06T12:04:15.055Z,-2.71
2022-12-06T12:05:14.986Z,-2.69
2022-12-06T12:06:14.988Z,-2.72
2022-12-06T12:07:14.968Z,-2.71
2022-12-06T12:08:14.977Z,-2.74
2022-12-06T12:09:14.943Z,-2.75
2022-12-06T12:10:15.681Z,-2.75
2022-12-06T12:11:14.939Z,-2.75
2022-12-06T12:12:14.907Z,-2.75
2022-12-06T12:13:14.897Z,-2.78
2022-12-06T12:14:14.897Z,-2.76
2022-12-06T12:15:14.909Z,-2.78
2022-12-06T12:16:14.947Z,-2.76
2022-12-06T12:17:14.873Z,-2.76
2022-12-06T12:18:14.870Z,-2.79
2022-12-06T12:19:14.845Z,-2.82
2022-12-06T12:20:14.855Z,-2.85
2022-12-06T12:21:14.806Z,-2.86
2022-12-06T12:22:14.824Z,-2.86
2022-12-06T12:23:14.813Z,-2.87
2022-12-06T12:24:14.783Z,-2.86
2022-12-06T12:25:19.213Z,-2.90
2022-12-06T12:26:14.774Z,-2.89
2022-12-06T12:27:20.400Z,-2.93
2022-12-06T12:28:14.756Z,-2.94
2022-12-06T12:29:14.722Z,-2.99
2022-12-06T12:30:14.715Z,-3.02
2022-12-06T12:31:14.723Z,-3.00
2022-12-06T12:32:14.746Z,-2.99
2022-12-06T12:33:14.685Z,-3.05
2022-12-06T12:34:14.681Z,-3.05
2022-12-06T12:35:14.660Z,-3.05
2022-12-06T12:36:14.675Z,-3.08
2022-12-06T12:37:14.650Z,-3.05
2022-12-06T12:38:14.686Z,-3.07
2022-12-06T12:39:14.614Z,-3.10
2022-12-06T12:40:14.654Z,-3.13
2022-12-06T12:41:14.626Z,-3.14
2022-12-06T12:42:14.594Z,-3.20
2022-12-06T12:43:14.578Z,-3.18
2022-12-06T12:44:36.499Z,-3.18
2022-12-06T12:45:14.586Z,-3.17
2022-12-06T12:46:14.625Z,-3.17
2022-12-06T12:47:14.531Z,-3.17
2022-12-06T12:48:14.520Z,-3.17
2022-12-06T12:49:14.508Z,-3.22
2022-12-06T12:50:14.567Z,-3.23
2022-12-06T12:51:14.530Z,-3.23
2022-12-06T12:52:14.481Z,-3.25
2022-12-06T12:53:14.467Z,-3.26
2022-12-06T12:54:14.498Z,-3.29